Time;durP1;ratioP1;P1;durP2;ratioP2;P2;SDS_P1;SDS_P2;PMS_P1;PMS_P2;Temp;Humidity;BMP_temperature;BMP_pressure;BME280_temperature;BME280_humidity;BME280_pressure;Samples;Min_cycle;Max_cycle;Signal;HPM_P1;HPM_P2
2021/08/07 00:00:01;;;;;;;12.93;7.65;;;;;;;;;;143739;566;47010;-60
2021/08/07 00:02:28;;;;;;;10.95;7.50;;;;;;;;;;143741;602;45911;-60
2021/08/07 00:04:55;;;;;;;13.70;8.18;;;;;;;;;;143742;601;47020;-59
2021/08/07 00:07:26;;;;;;;11.93;7.50;;;;;;;;;;143739;569;47020;-60
2021/08/07 00:09:53;;;;;;;9.50;7.10;;;;;;;;;;143740;581;46011;-60
2021/08/07 00:12:20;;;;;;;11.05;6.65;;;;;;;;;;143740;672;46023;-60
2021/08/07 00:14:47;;;;;;;15.05;6.47;;;;;;;;;;143743;585;45018;-60
2021/08/07 00:17:14;;;;;;;11.63;7.00;;;;;;;;;;143740;650;47022;-60
2021/08/07 00:19:41;;;;;;;13.02;6.53;;;;;;;;;;143740;589;46010;-59
2021/08/07 00:22:08;;;;;;;11.40;6.28;;;;;;;;;;143744;581;45020;-59
2021/08/07 00:24:35;;;;;;;16.25;6.72;;;;;;;;;;143743;566;45021;-59
2021/08/07 00:27:02;;;;;;;16.48;6.35;;;;;;;;;;143738;570;47020;-59
2021/08/07 00:29:35;;;;;;;11.40;5.85;;;;;;;;;;143739;606;47010;-59
2021/08/07 00:32:03;;;;;;;13.00;6.47;;;;;;;;;;143741;569;46021;-60
2021/08/07 00:34:30;;;;;;;18.65;6.47;;;;;;;;;;143744;584;45021;-59
2021/08/07 00:36:56;;;;;;;10.07;5.95;;;;;;;;;;143741;579;46010;-60
2021/08/07 00:39:24;;;;;;;9.55;5.45;;;;;;;;;;143738;573;47010;-59
2021/08/07 00:41:51;;;;;;;10.90;6.28;;;;;;;;;;143742;564;45021;-60
2021/08/07 00:44:18;;;;;;;13.43;5.95;;;;;;;;;;143744;624;45023;-59
2021/08/07 00:46:45;;;;;;;10.57;6.03;;;;;;;;;;143739;691;47021;-58
2021/08/07 00:49:12;;;;;;;15.45;5.45;;;;;;;;;;143739;693;47010;-59
2021/08/07 00:51:39;;;;;;;9.13;5.45;;;;;;;;;;143740;598;46020;-60
2021/08/07 00:54:06;;;;;;;9.13;5.32;;;;;;;;;;143742;603;46020;-58
2021/08/07 00:56:33;;;;;;;9.40;5.68;;;;;;;;;;143738;586;47023;-59
2021/08/07 00:59:00;;;;;;;13.20;5.65;;;;;;;;;;143738;576;47010;-60
2021/08/07 01:01:36;;;;;;;6.62;4.80;;;;;;;;;;143735;684;46021;-60
2021/08/07 01:04:08;;;;;;;7.90;5.10;;;;;;;;;;143743;594;46021;-59
2021/08/07 01:06:49;;;;;;;8.90;5.00;;;;;;;;;;143739;612;47020;-60
2021/08/07 01:09:54;;;;;;;11.60;4.95;;;;;;;;;;143740;621;47010;-60
2021/08/07 01:12:32;;;;;;;8.45;4.87;;;;;;;;;;143740;730;46021;-60
2021/08/07 01:15:01;;;;;;;8.38;4.97;;;;;;;;;;143743;578;46020;-59
2021/08/07 01:17:30;;;;;;;8.65;5.53;;;;;;;;;;143737;633;48020;-60
2021/08/07 01:20:10;;;;;;;7.45;4.75;;;;;;;;;;143738;570;47010;-59
2021/08/07 01:23:11;;;;;;;9.85;5.25;;;;;;;;;;143739;582;46020;-59
2021/08/07 01:25:58;;;;;;;6.53;4.22;;;;;;;;;;143741;639;46021;-60
2021/08/07 01:28:32;;;;;;;11.63;4.68;;;;;;;;;;143740;670;47044;-59
2021/08/07 01:31:01;;;;;;;9.23;5.00;;;;;;;;;;143739;576;47010;-59
2021/08/07 01:33:28;;;;;;;7.82;4.93;;;;;;;;;;143740;573;46021;-59
2021/08/07 01:35:56;;;;;;;6.72;4.35;;;;;;;;;;143743;630;46020;-59
2021/08/07 01:38:23;;;;;;;9.13;4.65;;;;;;;;;;143740;652;47021;-59
2021/08/07 01:40:50;;;;;;;9.48;4.70;;;;;;;;;;143738;614;47010;-59
2021/08/07 01:43:17;;;;;;;6.55;4.28;;;;;;;;;;143740;672;46020;-60
2021/08/07 01:45:48;;;;;;;7.50;4.28;;;;;;;;;;143744;616;46020;-60
2021/08/07 01:48:59;;;;;;;6.50;4.30;;;;;;;;;;143741;588;47023;-60
2021/08/07 01:51:34;;;;;;;6.68;4.28;;;;;;;;;;143739;636;47010;-60
2021/08/07 01:54:03;;;;;;;5.75;3.90;;;;;;;;;;143739;698;47021;-58
2021/08/07 01:56:33;;;;;;;6.22;3.80;;;;;;;;;;143744;609;46021;-60
2021/08/07 01:59:07;;;;;;;5.62;4.35;;;;;;;;;;143740;630;47020;-60
2021/08/07 02:01:35;;;;;;;5.50;3.80;;;;;;;;;;143738;588;47010;-59
2021/08/07 02:04:03;;;;;;;5.97;4.25;;;;;;;;;;143738;609;46021;-59
2021/08/07 02:06:31;;;;;;;7.45;4.30;;;;;;;;;;143742;661;46020;-60
2021/08/07 02:08:59;;;;;;;7.80;4.20;;;;;;;;;;143739;585;47021;-59
2021/08/07 02:11:27;;;;;;;9.18;4.07;;;;;;;;;;143741;640;46010;-59
2021/08/07 02:13:55;;;;;;;6.03;4.43;;;;;;;;;;143740;577;46020;-60
2021/08/07 02:16:22;;;;;;;7.28;4.30;;;;;;;;;;143743;619;46020;-59
2021/08/07 02:18:50;;;;;;;8.93;4.25;;;;;;;;;;143742;564;47020;-59
2021/08/07 02:21:18;;;;;;;6.72;3.90;;;;;;;;;;143738;608;47010;-59
2021/08/07 02:23:49;;;;;;;6.45;4.07;;;;;;;;;;143741;617;46020;-60
2021/08/07 02:26:19;;;;;;;7.53;4.35;;;;;;;;;;143744;634;46021;-60
2021/08/07 02:28:47;;;;;;;6.10;3.72;;;;;;;;;;143742;595;47020;-59
2021/08/07 02:31:14;;;;;;;6.53;3.80;;;;;;;;;;143737;565;47010;-60
2021/08/07 02:33:42;;;;;;;8.38;4.62;;;;;;;;;;143739;645;46021;-59
2021/08/07 02:36:12;;;;;;;7.70;3.78;;;;;;;;;;143741;565;46020;-59
2021/08/07 02:38:39;;;;;;;7.03;4.37;;;;;;;;;;143741;570;47021;-59
2021/08/07 02:41:07;;;;;;;6.05;3.60;;;;;;;;;;143739;632;47010;-59
2021/08/07 02:43:35;;;;;;;8.27;4.10;;;;;;;;;;143740;566;46020;-59
2021/08/07 02:46:02;;;;;;;7.53;3.90;;;;;;;;;;143744;636;46020;-59
2021/08/07 02:48:31;;;;;;;8.70;4.10;;;;;;;;;;143740;639;47020;-60
2021/08/07 02:50:59;;;;;;;4.97;3.70;;;;;;;;;;143739;590;47010;-59
2021/08/07 02:53:27;;;;;;;7.15;3.83;;;;;;;;;;143743;582;46020;-60
2021/08/07 02:55:54;;;;;;;7.03;3.85;;;;;;;;;;143744;572;46021;-59
2021/08/07 02:58:22;;;;;;;6.87;3.40;;;;;;;;;;143740;569;47020;-59
2021/08/07 03:00:49;;;;;;;5.57;3.60;;;;;;;;;;143738;581;47011;-59
2021/08/07 03:03:16;;;;;;;10.20;3.85;;;;;;;;;;143742;603;46021;-59
2021/08/07 03:05:43;;;;;;;6.65;4.18;;;;;;;;;;143742;626;46020;-59
2021/08/07 03:08:11;;;;;;;9.00;3.83;;;;;;;;;;143741;580;47021;-60
2021/08/07 03:10:38;;;;;;;9.30;3.30;;;;;;;;;;143738;592;47010;-59
2021/08/07 03:13:05;;;;;;;5.60;3.20;;;;;;;;;;143741;590;46020;-59
2021/08/07 03:15:32;;;;;;;7.82;3.70;;;;;;;;;;143743;588;46020;-60
2021/08/07 03:17:59;;;;;;;6.53;3.20;;;;;;;;;;143739;572;47023;-59
2021/08/07 03:20:32;;;;;;;5.35;3.53;;;;;;;;;;143740;569;47010;-60
2021/08/07 03:23:01;;;;;;;13.35;3.80;;;;;;;;;;143743;613;46020;-60
2021/08/07 03:25:28;;;;;;;9.10;3.15;;;;;;;;;;143746;569;46021;-59
2021/08/07 03:27:56;;;;;;;6.32;3.25;;;;;;;;;;143740;634;47020;-59
2021/08/07 03:30:24;;;;;;;9.25;3.37;;;;;;;;;;143740;610;47011;-60
2021/08/07 03:32:51;;;;;;;18.85;3.80;;;;;;;;;;143741;576;47018;-59
2021/08/07 03:35:18;;;;;;;7.68;3.50;;;;;;;;;;143745;583;46020;-59
2021/08/07 03:37:46;;;;;;;13.75;3.45;;;;;;;;;;143741;581;47021;-59
2021/08/07 03:40:16;;;;;;;6.87;3.17;;;;;;;;;;143739;593;47010;-59
2021/08/07 03:42:44;;;;;;;12.30;3.47;;;;;;;;;;143741;588;46020;-59
2021/08/07 03:45:11;;;;;;;7.78;3.05;;;;;;;;;;143745;573;46020;-59
2021/08/07 03:47:50;;;;;;;12.05;3.22;;;;;;;;;;143740;672;47021;-59
2021/08/07 03:50:19;;;;;;;8.48;2.83;;;;;;;;;;143739;592;47010;-58
2021/08/07 03:52:46;;;;;;;10.07;3.35;;;;;;;;;;143743;604;46020;-59
2021/08/07 03:55:13;;;;;;;5.75;3.15;;;;;;;;;;143746;664;46021;-59
2021/08/07 03:58:00;;;;;;;4.97;3.12;;;;;;;;;;143741;615;47020;-59
2021/08/07 04:00:30;;;;;;;11.35;3.65;;;;;;;;;;143740;623;47011;-59
2021/08/07 04:02:57;;;;;;;8.73;3.03;;;;;;;;;;143742;616;46020;-59
2021/08/07 04:05:25;;;;;;;5.00;3.05;;;;;;;;;;143745;571;46020;-60
2021/08/07 04:07:51;;;;;;;4.55;2.72;;;;;;;;;;143741;606;47022;-59
2021/08/07 04:10:19;;;;;;;4.03;2.90;;;;;;;;;;143741;612;47010;-59
2021/08/07 04:12:46;;;;;;;4.28;2.50;;;;;;;;;;143744;605;46020;-60
2021/08/07 04:15:13;;;;;;;8.05;2.80;;;;;;;;;;143745;572;46020;-59
2021/08/07 04:17:40;;;;;;;8.32;2.95;;;;;;;;;;143740;632;47023;-61
2021/08/07 04:20:10;;;;;;;4.65;2.95;;;;;;;;;;143741;591;47010;-59
2021/08/07 04:22:37;;;;;;;8.27;3.00;;;;;;;;;;143742;575;46020;-60
2021/08/07 04:25:07;;;;;;;20.67;3.62;;;;;;;;;;143745;570;46021;-60
2021/08/07 04:27:34;;;;;;;4.65;2.60;;;;;;;;;;143742;598;47020;-60
2021/08/07 04:30:02;;;;;;;5.78;2.85;;;;;;;;;;143742;637;47010;-60
2021/08/07 04:32:29;;;;;;;8.98;3.00;;;;;;;;;;143743;626;46021;-60
2021/08/07 04:34:56;;;;;;;6.35;2.92;;;;;;;;;;143744;579;46020;-59
2021/08/07 04:37:23;;;;;;;10.48;2.70;;;;;;;;;;143741;622;47022;-59
2021/08/07 04:39:50;;;;;;;4.07;2.70;;;;;;;;;;143740;627;47010;-59
2021/08/07 04:42:17;;;;;;;6.10;2.80;;;;;;;;;;143743;566;46020;-58
2021/08/07 04:44:44;;;;;;;6.25;2.87;;;;;;;;;;143743;611;46020;-59
2021/08/07 04:47:11;;;;;;;7.43;3.80;;;;;;;;;;143739;589;47023;-59
2021/08/07 04:49:38;;;;;;;3.40;2.67;;;;;;;;;;143740;587;47010;-60
2021/08/07 04:52:05;;;;;;;5.05;3.15;;;;;;;;;;143739;598;46020;-60
2021/08/07 04:54:33;;;;;;;7.45;2.83;;;;;;;;;;143743;569;46021;-58
2021/08/07 04:57:00;;;;;;;3.05;2.62;;;;;;;;;;143740;564;47022;-58
2021/08/07 04:59:27;;;;;;;3.25;2.62;;;;;;;;;;143741;674;47010;-59
2021/08/07 05:01:54;;;;;;;5.93;2.92;;;;;;;;;;143740;581;46021;-59
2021/08/07 05:04:21;;;;;;;4.07;2.67;;;;;;;;;;143744;585;46020;-59
2021/08/07 05:06:48;;;;;;;8.50;2.92;;;;;;;;;;143740;576;47022;-58
2021/08/07 05:09:15;;;;;;;4.53;2.92;;;;;;;;;;143740;599;47010;-59
2021/08/07 05:11:42;;;;;;;7.80;2.85;;;;;;;;;;143741;611;46020;-59
2021/08/07 05:14:09;;;;;;;4.78;2.75;;;;;;;;;;143745;589;46020;-59
2021/08/07 05:16:36;;;;;;;4.47;2.53;;;;;;;;;;143742;565;47020;-58
2021/08/07 05:19:03;;;;;;;5.20;3.10;;;;;;;;;;143739;632;47010;-59
2021/08/07 05:21:30;;;;;;;5.20;2.85;;;;;;;;;;143743;594;46020;-58
2021/08/07 05:23:57;;;;;;;4.85;2.87;;;;;;;;;;143743;718;46021;-58
2021/08/07 05:26:24;;;;;;;10.48;3.35;;;;;;;;;;143740;722;47022;-58
2021/08/07 05:28:51;;;;;;;4.47;3.00;;;;;;;;;;143739;682;47010;-59
2021/08/07 05:31:18;;;;;;;5.57;3.30;;;;;;;;;;143740;581;46021;-58
2021/08/07 05:33:45;;;;;;;5.37;3.08;;;;;;;;;;143738;688;47010;-60
2021/08/07 05:36:12;;;;;;;5.18;2.60;;;;;;;;;;143741;583;47020;-59
2021/08/07 05:38:39;;;;;;;7.75;3.05;;;;;;;;;;143740;631;47010;-60
2021/08/07 05:41:06;;;;;;;4.82;3.20;;;;;;;;;;143740;629;46020;-60
2021/08/07 05:43:33;;;;;;;6.47;3.03;;;;;;;;;;143744;674;46020;-60
2021/08/07 05:46:00;;;;;;;5.97;3.15;;;;;;;;;;143741;721;47021;-60
2021/08/07 05:48:27;;;;;;;5.80;3.40;;;;;;;;;;143741;658;47010;-59
2021/08/07 05:50:54;;;;;;;6.90;3.20;;;;;;;;;;143742;577;46020;-60
2021/08/07 05:53:21;;;;;;;4.40;3.03;;;;;;;;;;143745;600;46020;-61
2021/08/07 05:55:48;;;;;;;4.72;3.22;;;;;;;;;;143741;569;47020;-59
2021/08/07 05:58:15;;;;;;;4.97;2.67;;;;;;;;;;143741;573;47010;-59
2021/08/07 06:00:42;;;;;;;3.90;2.78;;;;;;;;;;143740;616;46021;-59
2021/08/07 06:03:09;;;;;;;8.45;2.85;;;;;;;;;;143745;581;46020;-59
2021/08/07 06:05:36;;;;;;;3.65;2.80;;;;;;;;;;143741;586;47020;-60
2021/08/07 06:08:03;;;;;;;6.70;2.60;;;;;;;;;;143741;570;47010;-59
2021/08/07 06:10:31;;;;;;;5.47;3.33;;;;;;;;;;143742;582;46020;-60
2021/08/07 06:12:58;;;;;;;3.95;2.85;;;;;;;;;;143745;668;46020;-59
2021/08/07 06:15:25;;;;;;;7.03;2.97;;;;;;;;;;143742;574;47021;-60
2021/08/07 06:17:52;;;;;;;4.45;3.10;;;;;;;;;;143740;579;47010;-58
2021/08/07 06:20:19;;;;;;;5.97;2.50;;;;;;;;;;143740;591;46020;-59
2021/08/07 06:22:46;;;;;;;2.58;2.35;;;;;;;;;;143745;614;46021;-62
2021/08/07 06:25:13;;;;;;;3.62;2.62;;;;;;;;;;143742;631;47020;-61
2021/08/07 06:27:40;;;;;;;6.12;3.00;;;;;;;;;;143740;642;47010;-61
2021/08/07 06:30:08;;;;;;;4.18;2.75;;;;;;;;;;143742;604;46021;-59
2021/08/07 06:32:35;;;;;;;6.55;2.90;;;;;;;;;;143744;577;46020;-58
2021/08/07 06:35:03;;;;;;;8.13;3.45;;;;;;;;;;143738;606;47020;-61
2021/08/07 06:37:30;;;;;;;5.18;3.37;;;;;;;;;;143741;585;47010;-60
2021/08/07 06:39:57;;;;;;;4.18;3.03;;;;;;;;;;143742;579;46020;-59
2021/08/07 06:42:24;;;;;;;4.68;2.80;;;;;;;;;;143744;593;46020;-59
2021/08/07 06:44:52;;;;;;;3.17;2.33;;;;;;;;;;143744;587;46022;-59
2021/08/07 06:47:18;;;;;;;6.80;3.90;;;;;;;;;;143740;569;47010;-61
2021/08/07 06:49:45;;;;;;;8.68;3.67;;;;;;;;;;143741;582;46020;-59
2021/08/07 06:52:12;;;;;;;5.10;3.03;;;;;;;;;;143745;626;46020;-60
2021/08/07 06:54:40;;;;;;;3.70;3.28;;;;;;;;;;143739;572;47023;-59
2021/08/07 06:57:07;;;;;;;5.95;4.15;;;;;;;;;;143740;593;47010;-58
2021/08/07 06:59:33;;;;;;;5.57;3.20;;;;;;;;;;143743;572;46020;-59
2021/08/07 07:02:00;;;;;;;7.15;3.72;;;;;;;;;;143744;597;46020;-60
2021/08/07 07:04:29;;;;;;;5.97;3.30;;;;;;;;;;143740;628;47022;-59
2021/08/07 07:06:57;;;;;;;7.60;3.45;;;;;;;;;;143742;564;47010;-59
2021/08/07 07:09:24;;;;;;;5.55;2.80;;;;;;;;;;143743;570;46020;-58
2021/08/07 07:11:51;;;;;;;5.50;2.95;;;;;;;;;;143745;569;46020;-58
2021/08/07 07:14:18;;;;;;;6.10;2.33;;;;;;;;;;143742;598;47028;-59
2021/08/07 07:16:45;;;;;;;5.18;2.28;;;;;;;;;;143740;594;47010;-58
2021/08/07 07:19:12;;;;;;;3.92;3.03;;;;;;;;;;143740;565;46020;-59
2021/08/07 07:21:39;;;;;;;3.40;2.87;;;;;;;;;;143743;601;46020;-59
2021/08/07 07:24:07;;;;;;;5.32;2.78;;;;;;;;;;143742;597;47020;-58
2021/08/07 07:26:34;;;;;;;8.75;2.97;;;;;;;;;;143741;606;47010;-59
2021/08/07 07:29:01;;;;;;;5.35;2.67;;;;;;;;;;143743;603;46020;-58
2021/08/07 07:31:28;;;;;;;5.12;3.22;;;;;;;;;;143744;613;46021;-58
2021/08/07 07:33:57;;;;;;;5.10;2.87;;;;;;;;;;143740;663;47020;-59
2021/08/07 07:36:24;;;;;;;4.95;2.67;;;;;;;;;;143739;615;47011;-58
2021/08/07 07:38:51;;;;;;;4.93;3.10;;;;;;;;;;143742;645;46021;-59
2021/08/07 07:41:18;;;;;;;4.45;2.90;;;;;;;;;;143741;643;46020;-59
2021/08/07 07:43:45;;;;;;;4.93;2.47;;;;;;;;;;143740;608;48021;-59
2021/08/07 07:46:13;;;;;;;4.80;2.05;;;;;;;;;;143738;587;47010;-58
2021/08/07 07:48:41;;;;;;;7.00;3.20;;;;;;;;;;143741;605;46020;-57
2021/08/07 07:51:08;;;;;;;4.70;3.08;;;;;;;;;;143742;612;46020;-58
2021/08/07 07:53:35;;;;;;;3.95;3.03;;;;;;;;;;143738;594;47023;-58
2021/08/07 07:56:03;;;;;;;4.95;2.85;;;;;;;;;;143738;565;47010;-59
2021/08/07 07:58:30;;;;;;;7.43;2.03;;;;;;;;;;143732;583;47010;-60
2021/08/07 08:00:57;;;;;;;4.97;2.20;;;;;;;;;;143743;612;46021;-58
2021/08/07 08:03:24;;;;;;;6.10;1.45;;;;;;;;;;143738;566;47020;-60
2021/08/07 08:05:51;;;;;;;4.78;2.72;;;;;;;;;;143742;564;47011;-60
2021/08/07 08:08:18;;;;;;;9.98;2.83;;;;;;;;;;143737;600;46021;-60
2021/08/07 08:10:46;;;;;;;2.85;2.15;;;;;;;;;;143741;564;46020;-59
2021/08/07 08:13:13;;;;;;;3.87;2.42;;;;;;;;;;143739;600;47022;-59
2021/08/07 08:15:40;;;;;;;3.03;1.48;;;;;;;;;;143738;574;47010;-59
2021/08/07 08:18:08;;;;;;;6.95;2.92;;;;;;;;;;143742;661;46020;-59
2021/08/07 08:20:35;;;;;;;6.97;2.87;;;;;;;;;;143744;601;46020;-59
2021/08/07 08:23:02;;;;;;;5.18;2.50;;;;;;;;;;143737;571;47020;-58
2021/08/07 08:25:29;;;;;;;4.47;2.53;;;;;;;;;;143740;578;47010;-58
2021/08/07 08:27:56;;;;;;;6.28;3.15;;;;;;;;;;143739;589;46020;-58
2021/08/07 08:30:23;;;;;;;10.55;2.87;;;;;;;;;;143742;619;46021;-59
2021/08/07 08:32:50;;;;;;;3.83;2.33;;;;;;;;;;143737;595;47022;-60
2021/08/07 08:35:17;;;;;;;5.62;2.53;;;;;;;;;;143737;626;47010;-60
2021/08/07 08:37:44;;;;;;;9.13;2.90;;;;;;;;;;143740;592;46021;-58
2021/08/07 08:40:12;;;;;;;5.10;2.28;;;;;;;;;;143742;686;46020;-60
2021/08/07 08:42:40;;;;;;;6.80;2.87;;;;;;;;;;143739;604;47021;-59
2021/08/07 08:45:08;;;;;;;10.25;2.60;;;;;;;;;;143739;566;47010;-59
2021/08/07 08:47:37;;;;;;;6.37;2.87;;;;;;;;;;143741;623;46020;-58
2021/08/07 08:50:05;;;;;;;4.97;2.30;;;;;;;;;;143743;591;46020;-57
2021/08/07 08:52:36;;;;;;;5.70;2.50;;;;;;;;;;143739;600;47023;-58
2021/08/07 08:55:04;;;;;;;2.37;1.80;;;;;;;;;;143739;581;47010;-59
2021/08/07 08:57:31;;;;;;;6.18;2.62;;;;;;;;;;143739;564;46020;-59
2021/08/07 08:59:58;;;;;;;8.40;2.20;;;;;;;;;;143742;587;46021;-58
2021/08/07 09:02:25;;;;;;;5.15;2.65;;;;;;;;;;143739;565;47022;-58
2021/08/07 09:04:52;;;;;;;2.10;1.87;;;;;;;;;;143740;588;46011;-59
2021/08/07 09:07:19;;;;;;;4.60;2.45;;;;;;;;;;143738;580;46021;-59
2021/08/07 09:09:53;;;;;;;6.05;2.87;;;;;;;;;;143743;628;46020;-58
2021/08/07 09:12:37;;;;;;;4.65;2.47;;;;;;;;;;143737;601;47021;-59
2021/08/07 09:15:05;;;;;;;7.40;3.53;;;;;;;;;;143738;592;47010;-60
2021/08/07 09:17:32;;;;;;;6.57;3.75;;;;;;;;;;143741;564;46020;-59
2021/08/07 09:20:00;;;;;;;5.28;3.53;;;;;;;;;;143744;569;46020;-58
2021/08/07 09:22:32;;;;;;;4.80;2.50;;;;;;;;;;143737;565;47048;-59
2021/08/07 09:25:08;;;;;;;6.97;3.17;;;;;;;;;;143738;645;47010;-58
2021/08/07 09:27:47;;;;;;;6.32;3.08;;;;;;;;;;143741;649;46020;-58
2021/08/07 09:30:40;;;;;;;4.80;1.83;;;;;;;;;;143743;674;46021;-59
2021/08/07 09:33:20;;;;;;;5.90;2.03;;;;;;;;;;143738;604;47020;-58
2021/08/07 09:35:48;;;;;;;4.82;2.33;;;;;;;;;;143738;605;47010;-60
2021/08/07 09:38:23;;;;;;;2.42;2.22;;;;;;;;;;143740;656;46021;-59
2021/08/07 09:41:01;;;;;;;4.75;2.17;;;;;;;;;;143744;607;46020;-59
2021/08/07 09:43:43;;;;;;;2.47;2.28;;;;;;;;;;143739;567;47021;-58
2021/08/07 09:46:14;;;;;;;3.97;2.00;;;;;;;;;;143738;583;47010;-59
2021/08/07 09:49:00;;;;;;;3.33;2.42;;;;;;;;;;143737;596;46036;-58
2021/08/07 09:51:36;;;;;;;3.50;1.95;;;;;;;;;;143742;621;46023;-59
2021/08/07 09:54:15;;;;;;;4.62;1.98;;;;;;;;;;143740;585;47020;-58
2021/08/07 09:56:50;;;;;;;5.15;2.67;;;;;;;;;;143739;586;47012;-59
2021/08/07 09:59:18;;;;;;;3.70;2.00;;;;;;;;;;143740;590;46021;-57
2021/08/07 10:01:47;;;;;;;5.55;1.77;;;;;;;;;;143743;615;46020;-60
2021/08/07 10:04:16;;;;;;;3.85;2.25;;;;;;;;;;143740;576;47021;-58
2021/08/07 10:06:44;;;;;;;2.85;2.22;;;;;;;;;;143739;635;47012;-60
2021/08/07 10:09:12;;;;;;;6.72;2.83;;;;;;;;;;143739;607;46020;-58
2021/08/07 10:11:40;;;;;;;5.40;2.80;;;;;;;;;;143741;669;46020;-59
2021/08/07 10:14:07;;;;;;;4.85;2.37;;;;;;;;;;143739;627;47023;-59
2021/08/07 10:16:35;;;;;;;4.28;2.83;;;;;;;;;;143738;571;47012;-59
2021/08/07 10:19:03;;;;;;;2.92;2.28;;;;;;;;;;143740;583;46020;-57
2021/08/07 10:21:30;;;;;;;4.25;2.72;;;;;;;;;;143743;575;46021;-57
2021/08/07 10:24:00;;;;;;;3.20;2.35;;;;;;;;;;143738;627;47020;-58
2021/08/07 10:26:28;;;;;;;4.78;2.28;;;;;;;;;;143738;606;47012;-60
2021/08/07 10:29:03;;;;;;;4.50;2.03;;;;;;;;;;143740;668;46021;-59
2021/08/07 10:31:33;;;;;;;3.62;2.45;;;;;;;;;;143744;601;46020;-59
2021/08/07 10:34:04;;;;;;;3.83;2.03;;;;;;;;;;143739;588;47020;-59
2021/08/07 10:36:31;;;;;;;4.45;2.35;;;;;;;;;;143738;644;47012;-59
2021/08/07 10:39:01;;;;;;;5.05;2.00;;;;;;;;;;143739;574;46020;-60
2021/08/07 10:41:30;;;;;;;7.10;2.45;;;;;;;;;;143743;577;46020;-59
2021/08/07 10:44:00;;;;;;;7.90;1.87;;;;;;;;;;143739;589;47020;-60
2021/08/07 10:46:28;;;;;;;2.17;1.77;;;;;;;;;;143737;576;47012;-60
2021/08/07 10:48:55;;;;;;;2.75;2.05;;;;;;;;;;143739;620;46020;-59
2021/08/07 10:51:41;;;;;;;2.85;2.37;;;;;;;;;;143744;581;46021;-59
2021/08/07 10:54:36;;;;;;;2.85;2.10;;;;;;;;;;143742;566;46022;-59
2021/08/07 10:57:03;;;;;;;2.50;2.05;;;;;;;;;;143740;581;46032;-58
2021/08/07 10:59:39;;;;;;;6.30;2.28;;;;;;;;;;143739;581;46021;-60
2021/08/07 11:02:19;;;;;;;2.47;2.12;;;;;;;;;;143742;581;46020;-60
2021/08/07 11:04:51;;;;;;;2.15;1.87;;;;;;;;;;143738;581;47022;-60
2021/08/07 11:07:22;;;;;;;3.12;1.85;;;;;;;;;;143737;571;47012;-59
2021/08/07 11:10:11;;;;;;;4.37;2.08;;;;;;;;;;143743;607;46020;-60
2021/08/07 11:12:40;;;;;;;5.10;2.60;;;;;;;;;;143743;635;46022;-60
2021/08/07 11:15:10;;;;;;;5.32;2.28;;;;;;;;;;143739;581;47020;-59
2021/08/07 11:17:42;;;;;;;1.35;1.12;;;;;;;;;;143737;614;47012;-58
2021/08/07 11:20:34;;;;;;;6.12;2.75;;;;;;;;;;143740;638;46911;-60
2021/08/07 11:23:10;;;;;;;4.93;2.42;;;;;;;;;;143743;649;46020;-60
2021/08/07 11:25:51;;;;;;;2.87;2.00;;;;;;;;;;143739;697;47022;-59
2021/08/07 11:28:21;;;;;;;2.58;2.10;;;;;;;;;;143739;569;47012;-60
2021/08/07 11:30:49;;;;;;;3.58;2.58;;;;;;;;;;143740;597;46020;-59
2021/08/07 11:33:21;;;;;;;2.55;2.05;;;;;;;;;;143742;564;46020;-61
2021/08/07 11:36:08;;;;;;;2.10;1.90;;;;;;;;;;143740;658;47021;-60
2021/08/07 11:38:58;;;;;;;1.92;1.75;;;;;;;;;;143739;654;47012;-59
2021/08/07 11:41:36;;;;;;;2.55;2.35;;;;;;;;;;143735;571;46022;-58
2021/08/07 11:44:04;;;;;;;2.42;1.98;;;;;;;;;;143740;635;46021;-57
2021/08/07 11:46:37;;;;;;;5.18;2.55;;;;;;;;;;143738;613;47020;-58
2021/08/07 11:49:04;;;;;;;2.22;1.83;;;;;;;;;;143739;661;47012;-59
2021/08/07 11:51:32;;;;;;;2.28;2.03;;;;;;;;;;143734;576;46021;-59
2021/08/07 11:53:59;;;;;;;3.15;2.30;;;;;;;;;;143743;595;46020;-58
2021/08/07 11:56:26;;;;;;;3.50;2.30;;;;;;;;;;143736;674;47022;-58
2021/08/07 11:59:01;;;;;;;6.97;2.62;;;;;;;;;;143739;649;47012;-58
2021/08/07 12:01:30;;;;;;;3.70;2.47;;;;;;;;;;143741;621;46020;-58
2021/08/07 12:03:58;;;;;;;4.15;2.30;;;;;;;;;;143739;573;46021;-58
2021/08/07 12:06:33;;;;;;;5.25;2.58;;;;;;;;;;143740;598;47020;-58
2021/08/07 12:09:02;;;;;;;2.72;2.30;;;;;;;;;;143739;601;47012;-57
2021/08/07 12:11:29;;;;;;;4.10;3.15;;;;;;;;;;143739;579;46911;-58
2021/08/07 12:13:58;;;;;;;3.25;2.33;;;;;;;;;;143742;615;46021;-58
2021/08/07 12:16:37;;;;;;;3.33;2.72;;;;;;;;;;143739;650;47020;-58
2021/08/07 12:19:07;;;;;;;3.97;2.58;;;;;;;;;;143738;644;47012;-58
2021/08/07 12:21:37;;;;;;;4.87;3.22;;;;;;;;;;143736;685;47021;-66
2021/08/07 12:24:09;;;;;;;5.28;2.53;;;;;;;;;;143743;645;46020;-66
2021/08/07 12:26:50;;;;;;;3.00;2.22;;;;;;;;;;143739;610;47021;-66
2021/08/07 12:29:28;;;;;;;5.40;2.28;;;;;;;;;;143735;586;47012;-67
2021/08/07 12:32:03;;;;;;;4.75;2.90;;;;;;;;;;143740;611;46020;-67
2021/08/07 12:34:35;;;;;;;3.67;2.47;;;;;;;;;;143744;593;46020;-65
2021/08/07 12:37:09;;;;;;;3.53;2.22;;;;;;;;;;143739;614;47020;-66
2021/08/07 12:39:50;;;;;;;3.22;2.25;;;;;;;;;;143738;584;47012;-66
2021/08/07 12:42:21;;;;;;;3.15;2.80;;;;;;;;;;143738;593;46023;-67
2021/08/07 12:45:13;;;;;;;2.70;2.30;;;;;;;;;;143743;597;46018;-67
2021/08/07 12:47:40;;;;;;;5.35;2.75;;;;;;;;;;143739;668;47022;-66
2021/08/07 12:50:25;;;;;;;3.45;2.80;;;;;;;;;;143738;627;47013;-66
2021/08/07 12:52:55;;;;;;;3.33;2.97;;;;;;;;;;143741;603;46022;-66
2021/08/07 12:55:22;;;;;;;3.22;2.80;;;;;;;;;;143743;628;46020;-67
2021/08/07 12:57:49;;;;;;;6.28;2.92;;;;;;;;;;143738;645;47023;-64
2021/08/07 13:00:27;;;;;;;3.10;2.50;;;;;;;;;;143736;650;47020;-67
2021/08/07 13:03:07;;;;;;;6.75;2.92;;;;;;;;;;143739;612;46020;-67
2021/08/07 13:05:38;;;;;;;3.37;2.30;;;;;;;;;;143741;603;46021;-66
2021/08/07 13:08:25;;;;;;;2.72;2.20;;;;;;;;;;143736;579;48020;-67
2021/08/07 13:11:06;;;;;;;3.10;2.60;;;;;;;;;;143737;643;47012;-66
2021/08/07 13:13:44;;;;;;;8.68;2.28;;;;;;;;;;143739;586;46021;-66
2021/08/07 13:16:12;;;;;;;3.22;2.55;;;;;;;;;;143741;648;46020;-67
2021/08/07 13:18:39;;;;;;;7.90;2.40;;;;;;;;;;143739;566;47022;-64
2021/08/07 13:21:25;;;;;;;8.57;2.87;;;;;;;;;;143739;582;47012;-66
2021/08/07 13:23:52;;;;;;;3.47;2.78;;;;;;;;;;143735;594;46020;-67
2021/08/07 13:26:19;;;;;;;3.22;2.47;;;;;;;;;;143741;569;46021;-66
2021/08/07 13:28:46;;;;;;;3.00;2.53;;;;;;;;;;143739;710;47023;-68
2021/08/07 13:31:13;;;;;;;4.03;2.62;;;;;;;;;;143735;779;47012;-66
2021/08/07 13:33:40;;;;;;;2.78;2.37;;;;;;;;;;143741;603;46020;-66
2021/08/07 13:36:07;;;;;;;3.70;2.85;;;;;;;;;;143742;605;46021;-67
2021/08/07 13:38:34;;;;;;;4.18;2.90;;;;;;;;;;143740;564;47020;-58
2021/08/07 13:41:09;;;;;;;5.32;2.85;;;;;;;;;;143738;588;47013;-58
2021/08/07 13:43:37;;;;;;;2.90;2.60;;;;;;;;;;143740;695;46021;-58
2021/08/07 13:46:06;;;;;;;2.90;2.60;;;;;;;;;;143745;657;46020;-59
2021/08/07 13:48:33;;;;;;;4.82;3.00;;;;;;;;;;143739;681;47021;-59
2021/08/07 13:51:00;;;;;;;4.93;2.85;;;;;;;;;;143739;654;47012;-59
2021/08/07 13:53:27;;;;;;;2.67;2.47;;;;;;;;;;143739;677;46020;-59
2021/08/07 13:55:54;;;;;;;3.15;2.40;;;;;;;;;;143742;564;46020;-60
2021/08/07 13:58:21;;;;;;;3.08;2.33;;;;;;;;;;143740;672;47020;-59
2021/08/07 14:00:48;;;;;;;3.90;2.70;;;;;;;;;;143739;602;47012;-59
2021/08/07 14:03:16;;;;;;;2.83;2.58;;;;;;;;;;143740;570;46021;-59
2021/08/07 14:05:43;;;;;;;3.30;2.72;;;;;;;;;;143743;695;46021;-60
2021/08/07 14:08:10;;;;;;;3.28;2.65;;;;;;;;;;143740;566;47020;-59
2021/08/07 14:10:38;;;;;;;5.15;2.67;;;;;;;;;;143739;629;47012;-61
2021/08/07 14:13:06;;;;;;;3.85;2.45;;;;;;;;;;143741;570;46021;-60
2021/08/07 14:15:33;;;;;;;3.80;2.83;;;;;;;;;;143743;624;46020;-60
2021/08/07 14:18:03;;;;;;;3.08;2.80;;;;;;;;;;143738;565;47022;-60
2021/08/07 14:20:34;;;;;;;2.72;2.53;;;;;;;;;;143739;569;47012;-59
2021/08/07 14:23:01;;;;;;;4.00;2.33;;;;;;;;;;143741;656;46020;-60
2021/08/07 14:25:28;;;;;;;3.62;2.75;;;;;;;;;;143744;594;46020;-60
2021/08/07 14:27:56;;;;;;;4.15;2.53;;;;;;;;;;143739;591;47023;-59
2021/08/07 14:30:24;;;;;;;3.65;2.90;;;;;;;;;;143740;670;47012;-60
2021/08/07 14:32:51;;;;;;;4.62;3.15;;;;;;;;;;143740;575;46020;-59
2021/08/07 14:35:19;;;;;;;6.32;3.12;;;;;;;;;;143744;674;46021;-60
2021/08/07 14:37:46;;;;;;;3.62;2.97;;;;;;;;;;143738;636;47022;-60
2021/08/07 14:40:15;;;;;;;4.57;2.85;;;;;;;;;;143738;639;47012;-60
2021/08/07 14:42:42;;;;;;;5.28;3.03;;;;;;;;;;143740;667;46021;-58
2021/08/07 14:45:10;;;;;;;4.85;3.42;;;;;;;;;;143744;670;46020;-67
2021/08/07 14:47:37;;;;;;;3.97;2.45;;;;;;;;;;143739;599;47022;-66
2021/08/07 14:50:06;;;;;;;3.85;2.12;;;;;;;;;;143739;693;47012;-66
2021/08/07 14:52:33;;;;;;;5.18;2.50;;;;;;;;;;143739;663;46911;-63
2021/08/07 14:55:00;;;;;;;3.53;2.78;;;;;;;;;;143744;586;46020;-66